Denizhan Trio — 3FEN7 — position and weather

sailwx.info

Track history (hours):
 
Tides and Currents Weather Stations Pressure Air Temp Water Temp Dewpoint Dewpoint Depression Visibility Wind Speed Wind Dir Waves Ship Positions

Denizhan Trio

Last reported at 2018-May-15 00:42 UTC. Time now 2018-May-21 01:04 UTC.
Position N 32°56' E 034°44'.

Length 81 m; draft 4.8 m.

Type: Ship. MMSI: 372261000.

Date/timePositionNaut miles runAvg speedWind from/ knotsBaromVisibWave heightAir tempDewpointWater temp
2018-May-15 00:42N 32°56' E 034°44'2 7.6
2018-May-15 00:29N 32°56' E 034°46'4 7.6
2018-May-15 00:00N 32°55' E 034°50'4 7.4
2018-May-14 23:26N 32°54' E 034°55'4 7.5
2018-May-14 22:57N 32°52' E 034°59'2 0.2
2018-May-14 11:17N 32°51' E 034°60'0 0.0
2018-May-14 10:59N 32°51' E 034°60'0 0.0
2018-May-14 06:53N 32°51' E 034°60'0 0.0
2018-May-13 21:59N 32°51' E 034°60'0 0.0
2018-May-13 21:29N 32°51' E 034°60'0 0.0
2018-May-13 20:59N 32°51' E 034°60'0 0.0
2018-May-13 20:29N 32°51' E 034°60'0 0.0
2018-May-13 19:59N 32°51' E 034°60'0 0.0
2018-May-13 19:23N 32°51' E 034°60'0 0.0
2018-May-13 18:53N 32°51' E 034°60'0 0.0
2018-May-13 03:11N 32°51' E 034°60'0 0.0
2018-May-13 02:59N 32°51' E 034°60'0 0.0
2018-May-12 00:10N 32°51' E 034°60'0 0.0
2018-May-11 22:40N 32°51' E 034°60'0 0.0
2018-May-11 22:28N 32°51' E 034°60'0 0.0
2018-May-11 21:46N 32°51' E 034°60'0 0.0
2018-May-11 20:40N 32°51' E 034°60'0 0.0
2018-May-11 20:28N 32°51' E 034°60'0 0.0
2018-May-11 17:34N 32°51' E 034°60'0 0.1
2018-May-11 17:28N 32°51' E 034°60'0 0.0
2018-May-11 16:58N 32°51' E 034°60'0 0.0
2018-May-10 07:46N 32°51' E 034°60'0 0.0
2018-May-10 07:22N 32°51' E 034°60'0 0.1
2018-May-10 06:54N 32°51' E 034°60'0 0.0
2018-May-10 06:29N 32°51' E 034°60'0 0.0
2018-May-10 05:57N 32°51' E 034°60'0 0.0
2018-May-10 05:26N 32°51' E 034°60'0 0.0
2018-May-10 04:51N 32°51' E 034°60'0 0.0
2018-May-10 04:26N 32°51' E 034°60'0 0.0
2018-May-10 03:55N 32°51' E 034°60'0 0.0
2018-May-10 03:29N 32°51' E 034°60'0 0.0
2018-May-10 02:57N 32°51' E 034°60'0 0.0
2018-May-10 02:26N 32°51' E 034°60'0 0.1
2018-May-10 01:54N 32°51' E 034°60'2 6.2
2018-May-10 01:30N 32°52' E 034°57'4 7.9
2018-May-10 01:00N 32°53' E 034°53'4 8.0
2018-May-10 00:30N 32°54' E 034°48'  
Track history (hours):
 
Tides and Currents Weather Stations Pressure Air Temp Water Temp Dewpoint Dewpoint Depression Visibility Wind Speed Wind Dir Waves Ship Positions

Denizhan Trio

Last reported at 2018-May-15 00:42 UTC. Time now 2018-May-21 01:04 UTC.
Position N 32°56' E 034°44'.

Length 81 m; draft 4.8 m.

Type: Ship. MMSI: 372261000.

Date/timePositionNaut miles runAvg speedWind from/ knotsBaromVisibWave heightAir tempDewpointWater temp
2018-May-15 00:42N 32°56' E 034°44'2 7.6
2018-May-15 00:29N 32°56' E 034°46'4 7.6
2018-May-15 00:00N 32°55' E 034°50'4 7.4
2018-May-14 23:26N 32°54' E 034°55'4 7.5
2018-May-14 22:57N 32°52' E 034°59'2 0.2
2018-May-14 11:17N 32°51' E 034°60'0 0.0
2018-May-14 10:59N 32°51' E 034°60'0 0.0
2018-May-14 06:53N 32°51' E 034°60'0 0.0
2018-May-13 21:59N 32°51' E 034°60'0 0.0
2018-May-13 21:29N 32°51' E 034°60'0 0.0
2018-May-13 20:59N 32°51' E 034°60'0 0.0
2018-May-13 20:29N 32°51' E 034°60'0 0.0
2018-May-13 19:59N 32°51' E 034°60'0 0.0
2018-May-13 19:23N 32°51' E 034°60'0 0.0
2018-May-13 18:53N 32°51' E 034°60'0 0.0
2018-May-13 03:11N 32°51' E 034°60'0 0.0
2018-May-13 02:59N 32°51' E 034°60'0 0.0
2018-May-12 00:10N 32°51' E 034°60'0 0.0
2018-May-11 22:40N 32°51' E 034°60'0 0.0
2018-May-11 22:28N 32°51' E 034°60'0 0.0
2018-May-11 21:46N 32°51' E 034°60'0 0.0
2018-May-11 20:40N 32°51' E 034°60'0 0.0
2018-May-11 20:28N 32°51' E 034°60'0 0.0
2018-May-11 17:34N 32°51' E 034°60'0 0.1
2018-May-11 17:28N 32°51' E 034°60'0 0.0
2018-May-11 16:58N 32°51' E 034°60'0 0.0
2018-May-10 07:46N 32°51' E 034°60'0 0.0
2018-May-10 07:22N 32°51' E 034°60'0 0.1
2018-May-10 06:54N 32°51' E 034°60'0 0.0
2018-May-10 06:29N 32°51' E 034°60'0 0.0
2018-May-10 05:57N 32°51' E 034°60'0 0.0
2018-May-10 05:26N 32°51' E 034°60'0 0.0
2018-May-10 04:51N 32°51' E 034°60'0 0.0
2018-May-10 04:26N 32°51' E 034°60'0 0.0
2018-May-10 03:55N 32°51' E 034°60'0 0.0
2018-May-10 03:29N 32°51' E 034°60'0 0.0
2018-May-10 02:57N 32°51' E 034°60'0 0.0
2018-May-10 02:26N 32°51' E 034°60'0 0.1
2018-May-10 01:54N 32°51' E 034°60'2 6.2
2018-May-10 01:30N 32°52' E 034°57'4 7.9
2018-May-10 01:00N 32°53' E 034°53'4 8.0
2018-May-10 00:30N 32°54' E 034°48'  

Dump ship's entire track history